Time;durP1;ratioP1;P1;durP2;ratioP2;P2;SDS_P1;SDS_P2;PMS_P1;PMS_P2;Temp;Humidity;BMP_temperature;BMP_pressure;BME280_temperature;BME280_humidity;BME280_pressure;Samples;Min_cycle;Max_cycle;Signal;HPM_P1;HPM_P2
2023/09/04 00:02:05;;;;;;;12.80;3.95;;;;;;;13.92;nan;100879.81;5008764;28;20030;-75
2023/09/04 00:04:30;;;;;;;6.65;3.75;;;;;;;13.94;nan;100888.34;5006253;28;20122;-72
2023/09/04 00:06:56;;;;;;;9.40;3.75;;;;;;;13.88;nan;100885.81;5008313;28;20076;-73
2023/09/04 00:09:22;;;;;;;8.90;3.95;;;;;;;13.91;nan;100901.22;5009272;28;20025;-77
2023/09/04 00:11:47;;;;;;;8.57;4.00;;;;;;;13.83;nan;100887.31;5009249;28;20029;-77
2023/09/04 00:14:15;;;;;;;6.85;3.88;;;;;;;13.77;nan;100875.03;5008667;28;20018;-78
2023/09/04 00:16:42;;;;;;;11.02;5.20;;;;;;;13.74;nan;100878.16;5008839;28;20025;-78
2023/09/04 00:19:10;;;;;;;6.75;3.72;;;;;;;13.78;nan;100887.22;5006133;28;20026;-73
2023/09/04 00:21:35;;;;;;;5.90;4.38;;;;;;;13.62;nan;100872.06;5004327;28;20061;-72
2023/09/04 00:24:00;;;;;;;7.07;4.25;;;;;;;13.69;nan;100864.00;5006977;28;20124;-74
2023/09/04 00:26:27;;;;;;;8.07;4.18;;;;;;;13.72;nan;100877.59;5006097;28;20030;-74
2023/09/04 00:28:52;;;;;;;9.75;4.80;;;;;;;13.80;nan;100889.66;5005718;28;20029;-73
2023/09/04 00:31:17;;;;;;;8.60;4.70;;;;;;;13.76;nan;100884.00;5004696;28;20026;-72
2023/09/04 00:33:43;;;;;;;10.20;4.95;;;;;;;13.82;nan;100901.59;5006929;28;20033;-72
2023/09/04 00:36:08;;;;;;;11.23;4.93;;;;;;;13.81;nan;100891.25;5005774;28;20037;-73
2023/09/04 00:38:33;;;;;;;8.48;4.93;;;;;;;13.73;nan;100887.13;5004447;28;20044;-74
2023/09/04 00:40:59;;;;;;;9.32;5.18;;;;;;;13.82;nan;100895.50;5002140;28;20117;-74
2023/09/04 00:43:33;;;;;;;7.90;5.13;;;;;;;13.85;nan;100896.88;5005191;28;20022;-73
2023/09/04 00:45:59;;;;;;;11.00;4.88;;;;;;;13.63;nan;100863.09;5006389;28;20045;-75
2023/09/04 00:48:24;;;;;;;9.63;4.78;;;;;;;13.70;nan;100869.06;5002542;28;20476;-73
2023/09/04 00:50:50;;;;;;;12.05;5.63;;;;;;;13.75;nan;100878.97;5009332;28;20565;-75
2023/09/04 00:53:16;;;;;;;8.45;5.70;;;;;;;13.78;nan;100881.13;5007790;28;20037;-73
2023/09/04 00:55:42;;;;;;;10.45;6.07;;;;;;;13.69;nan;100864.78;5005191;28;20029;-74
2023/09/04 00:58:08;;;;;;;12.80;6.10;;;;;;;13.73;nan;100876.53;5008012;28;20112;-73
2023/09/04 01:00:34;;;;;;;9.52;5.82;;;;;;;13.68;nan;100867.69;5008729;28;20301;-73
2023/09/04 01:03:03;;;;;;;16.65;6.13;;;;;;;13.76;nan;100876.06;5009232;28;20132;-73
2023/09/04 01:05:31;;;;;;;;;;;;;;;13.74;nan;100885.28;5008862;28;20034;-74
2023/09/04 01:07:57;;;;;;;14.15;6.88;;;;;;;13.72;nan;100864.34;5009943;28;19913;-72
2023/09/04 01:10:22;;;;;;;9.00;6.25;;;;;;;13.82;nan;100874.34;5007729;28;20033;-74
2023/09/04 01:13:12;;;;;;;12.27;6.95;;;;;;;13.85;nan;100870.41;5015464;28;20037;-74
2023/09/04 01:15:37;;;;;;;;;;;;;;;13.86;nan;100878.09;5008238;28;20044;-73
2023/09/04 01:18:03;;;;;;;15.75;7.18;;;;;;;13.82;nan;100869.03;5029137;28;20264;-74
2023/09/04 01:20:29;;;;;;;13.07;7.20;;;;;;;13.87;nan;100874.44;5026844;28;20033;-76
2023/09/04 01:22:56;;;;;;;16.83;7.13;;;;;;;13.80;nan;100863.97;5010333;28;20086;-73
2023/09/04 01:25:23;;;;;;;13.45;6.47;;;;;;;13.79;nan;100859.72;5028703;28;20044;-74
2023/09/04 01:27:57;;;;;;;10.55;7.15;;;;;;;13.92;nan;100874.53;5004678;28;20044;-73
2023/09/04 01:30:33;;;;;;;8.68;6.00;;;;;;;13.92;nan;100866.59;5025752;28;20539;-73
2023/09/04 01:33:04;;;;;;;9.95;6.18;;;;;;;13.94;nan;100859.22;5026770;28;20174;-74
2023/09/04 01:35:31;;;;;;;11.05;6.15;;;;;;;14.01;nan;100870.47;5028154;28;20048;-75
2023/09/04 01:37:58;;;;;;;11.77;6.07;;;;;;;13.96;nan;100859.00;5010607;28;20037;-73
2023/09/04 01:40:24;;;;;;;10.68;6.43;;;;;;;14.05;nan;100868.16;5028824;28;20112;-74
2023/09/04 01:42:49;;;;;;;16.67;7.85;;;;;;;13.94;nan;100847.81;5027793;28;20112;-72
2023/09/04 01:45:14;;;;;;;11.57;7.45;;;;;;;13.97;nan;100853.44;5025408;28;20033;-75
2023/09/04 01:47:40;;;;;;;12.57;7.95;;;;;;;14.07;nan;100867.91;5009713;28;20587;-73
2023/09/04 01:50:06;;;;;;;14.90;8.02;;;;;;;14.02;nan;100856.19;5010814;28;20021;-75
2023/09/04 01:52:31;;;;;;;12.98;7.90;;;;;;;14.11;nan;100869.84;5028334;28;20025;-73
2023/09/04 01:54:56;;;;;;;16.00;8.18;;;;;;;14.09;nan;100866.63;5028257;28;20486;-71
2023/09/04 01:57:22;;;;;;;10.70;7.57;;;;;;;14.06;nan;100863.66;5027339;28;20079;-72
2023/09/04 01:59:47;;;;;;;15.98;7.75;;;;;;;14.10;nan;100868.22;5009062;28;20021;-71
2023/09/04 02:02:12;;;;;;;15.18;8.80;;;;;;;14.07;nan;100867.91;5026104;28;20021;-72
2023/09/04 02:04:38;;;;;;;12.45;7.35;;;;;;;14.06;nan;100861.81;5028113;28;20128;-71
2023/09/04 02:07:03;;;;;;;14.00;7.60;;;;;;;14.09;nan;100869.28;5027162;28;20021;-72
2023/09/04 02:09:29;;;;;;;12.20;8.13;;;;;;;13.97;nan;100853.44;5028321;28;20033;-71
2023/09/04 02:11:55;;;;;;;14.20;7.80;;;;;;;14.03;nan;100864.91;5005777;28;20053;-73
2023/09/04 02:14:21;;;;;;;13.95;7.45;;;;;;;13.83;nan;100830.94;5008817;28;20054;-73
2023/09/04 02:16:46;;;;;;;13.52;7.40;;;;;;;14.01;nan;100853.78;5008042;28;20017;-74
2023/09/04 02:19:12;;;;;;;14.98;7.95;;;;;;;;;;5007475;28;20033;-70
2023/09/04 02:21:37;;;;;;;13.88;7.50;;;;;;;14.08;nan;100856.28;5008048;28;20080;-74
2023/09/04 02:24:03;;;;;;;14.98;7.80;;;;;;;14.00;nan;100844.22;5008658;28;20054;-74
2023/09/04 02:26:28;;;;;;;14.00;8.30;;;;;;;14.09;nan;100864.00;5007488;28;20026;-73
2023/09/04 02:28:54;;;;;;;10.82;7.57;;;;;;;14.10;nan;100854.19;5008811;28;20033;-75
2023/09/04 02:31:19;;;;;;;12.43;7.13;;;;;;;14.08;nan;100848.31;5008334;28;20643;-73
2023/09/04 02:33:45;;;;;;;13.75;7.47;;;;;;;14.04;nan;100853.31;4989702;28;20030;-74
2023/09/04 02:36:10;;;;;;;14.38;7.72;;;;;;;13.90;nan;100855.41;5006022;28;20108;-73
2023/09/04 02:38:35;;;;;;;13.70;8.05;;;;;;;13.94;nan;100859.22;5008092;28;20446;-74
2023/09/04 02:41:01;;;;;;;12.35;7.43;;;;;;;13.94;nan;100856.56;5005987;28;20030;-76
2023/09/04 02:43:26;;;;;;;13.77;7.57;;;;;;;13.86;nan;100850.84;5008669;28;20476;-74
2023/09/04 02:45:52;;;;;;;12.35;7.95;;;;;;;13.86;nan;100858.78;5006123;28;20022;-73
2023/09/04 02:48:18;;;;;;;12.13;7.57;;;;;;;13.78;nan;100839.56;5007000;28;20397;-74
2023/09/04 02:50:43;;;;;;;13.23;7.95;;;;;;;13.77;nan;100835.34;5006258;28;20032;-73
2023/09/04 02:53:08;;;;;;;12.90;7.85;;;;;;;13.85;nan;100846.59;5003880;28;20021;-75
2023/09/04 02:55:34;;;;;;;14.10;7.90;;;;;;;13.73;nan;100831.53;5005933;28;20542;-75
2023/09/04 02:57:59;;;;;;;12.85;8.00;;;;;;;13.79;nan;100856.25;4973631;28;20025;-73
2023/09/04 03:00:27;;;;;;;22.05;8.07;;;;;;;13.72;nan;100839.69;5006583;28;20034;-73
2023/09/04 03:02:52;;;;;;;13.73;8.25;;;;;;;13.68;nan;100846.53;5007598;28;20017;-76
2023/09/04 03:05:18;;;;;;;13.60;8.10;;;;;;;13.60;nan;100826.53;5006964;28;20017;-73
2023/09/04 03:07:43;;;;;;;11.43;7.93;;;;;;;13.53;nan;100825.84;5005437;28;20531;-72
2023/09/04 03:10:09;;;;;;;14.75;8.57;;;;;;;13.60;nan;100839.75;5006436;28;20527;-75
2023/09/04 03:12:34;;;;;;;16.10;8.52;;;;;;;13.60;nan;100843.19;5006032;28;20519;-75
2023/09/04 03:15:05;;;;;;;15.57;8.07;;;;;;;13.60;nan;100850.34;5006160;28;20088;-73
2023/09/04 03:17:32;;;;;;;15.05;8.13;;;;;;;13.59;nan;100848.72;5006236;28;20484;-72
2023/09/04 03:19:58;;;;;;;13.88;8.50;;;;;;;13.37;nan;100830.81;5007470;28;20480;-74
2023/09/04 03:22:25;;;;;;;12.55;8.57;;;;;;;13.27;nan;100803.34;5007122;28;20017;-74
2023/09/04 03:24:51;;;;;;;17.83;8.27;;;;;;;13.38;nan;100818.38;5003670;28;20049;-73
2023/09/04 03:27:17;;;;;;;14.27;8.27;;;;;;;13.37;nan;100817.59;5007553;28;20021;-75
2023/09/04 03:29:43;;;;;;;15.88;8.98;;;;;;;13.39;nan;100827.94;5007567;28;20076;-73
2023/09/04 03:32:10;;;;;;;15.57;8.68;;;;;;;13.35;nan;100827.59;4989532;28;20056;-73
2023/09/04 03:34:37;;;;;;;18.77;9.02;;;;;;;13.38;nan;100835.09;5006330;28;20076;-74
2023/09/04 03:37:03;;;;;;;14.80;9.38;;;;;;;13.33;nan;100811.16;5007377;28;20197;-73
2023/09/04 03:39:28;;;;;;;13.38;8.65;;;;;;;13.34;nan;100818.06;5021659;28;20121;-75
2023/09/04 03:41:54;;;;;;;13.38;8.18;;;;;;;13.37;nan;100830.81;5004932;28;20045;-73
2023/09/04 03:44:19;;;;;;;14.00;8.52;;;;;;;13.38;nan;100840.38;5006442;28;20407;-72
2023/09/04 03:46:45;;;;;;;14.68;8.38;;;;;;;13.24;nan;100812.53;4988266;28;20698;-74
2023/09/04 03:49:12;;;;;;;16.02;9.10;;;;;;;13.32;nan;100835.22;5007340;28;20030;-72
2023/09/04 03:51:38;;;;;;;13.38;8.57;;;;;;;13.24;nan;100827.56;5021138;28;20113;-74
2023/09/04 03:54:03;;;;;;;14.15;9.32;;;;;;;13.27;nan;100835.91;5005457;28;20521;-74
2023/09/04 03:56:29;;;;;;;14.20;8.55;;;;;;;13.29;nan;100844.41;4989343;28;20072;-73
2023/09/04 03:58:56;;;;;;;13.75;8.75;;;;;;;13.22;nan;100838.41;5017977;28;20030;-73
2023/09/04 04:01:22;;;;;;;15.52;8.60;;;;;;;13.18;nan;100843.34;4986459;28;20026;-73
2023/09/04 04:03:51;;;;;;;17.50;9.55;;;;;;;13.21;nan;100847.34;5003429;28;20034;-72
2023/09/04 04:06:17;;;;;;;14.50;8.43;;;;;;;13.28;nan;100863.94;5006464;28;20500;-73
2023/09/04 04:08:45;;;;;;;12.15;8.60;;;;;;;13.18;nan;100842.53;5005851;28;20040;-74
2023/09/04 04:11:10;;;;;;;16.50;8.88;;;;;;;13.13;nan;100843.22;5005996;28;20048;-74
2023/09/04 04:13:35;;;;;;;13.23;8.73;;;;;;;13.17;nan;100844.38;5004157;28;20041;-74
2023/09/04 04:16:02;;;;;;;14.90;8.60;;;;;;;13.15;nan;100857.03;5004592;28;20038;-75
2023/09/04 04:18:29;;;;;;;14.98;8.95;;;;;;;13.07;nan;100841.53;5005548;28;20113;-73
2023/09/04 04:20:54;;;;;;;15.25;9.27;;;;;;;13.16;nan;100855.19;4988481;28;20034;-76
2023/09/04 04:23:20;;;;;;;13.82;8.88;;;;;;;13.13;nan;100859.09;4987597;28;20029;-74
2023/09/04 04:25:48;;;;;;;13.90;9.25;;;;;;;13.10;nan;100856.13;5009563;28;20410;-76
2023/09/04 04:28:13;;;;;;;12.55;8.68;;;;;;;13.00;nan;100843.47;5007676;28;20061;-72
2023/09/04 04:30:38;;;;;;;14.52;8.30;;;;;;;13.05;nan;100845.41;4990780;28;20088;-71
2023/09/04 04:33:04;;;;;;;13.35;8.55;;;;;;;13.01;nan;100837.16;5005131;28;20026;-72
2023/09/04 04:35:30;;;;;;;14.45;9.15;;;;;;;13.15;nan;100861.53;5005397;28;20078;-71
2023/09/04 04:37:56;;;;;;;17.27;9.35;;;;;;;12.96;nan;100837.03;5008514;28;20033;-71
2023/09/04 04:40:23;;;;;;;13.90;9.15;;;;;;;12.98;nan;100843.69;5010245;28;20072;-72
2023/09/04 04:42:48;;;;;;;15.65;9.18;;;;;;;13.05;nan;100851.53;5006272;28;20013;-71
2023/09/04 04:45:14;;;;;;;16.98;9.70;;;;;;;12.97;nan;100849.19;5008989;28;20029;-72
2023/09/04 04:47:39;;;;;;;17.10;9.70;;;;;;;12.98;nan;100861.41;4989696;28;20029;-75
2023/09/04 04:50:05;;;;;;;17.30;8.60;;;;;;;12.99;nan;100857.72;5008398;28;20053;-76
2023/09/04 04:52:31;;;;;;;13.73;10.15;;;;;;;13.05;nan;100869.19;4992863;28;20494;-76
2023/09/04 04:54:56;;;;;;;14.70;8.98;;;;;;;13.05;nan;100871.84;5006071;28;20026;-76
2023/09/04 04:57:23;;;;;;;16.13;9.77;;;;;;;12.99;nan;100857.72;5009310;28;20572;-72
2023/09/04 04:59:48;;;;;;;13.95;9.40;;;;;;;12.92;nan;100847.25;5005941;28;20026;-72
2023/09/04 05:02:16;;;;;;;16.60;9.82;;;;;;;13.03;nan;100864.16;5009440;28;20231;-72
2023/09/04 05:04:45;;;;;;;18.52;10.00;;;;;;;13.12;nan;100880.47;5008940;28;20030;-71
2023/09/04 05:07:11;;;;;;;12.02;9.52;;;;;;;13.07;nan;100867.97;4990553;28;20040;-71
2023/09/04 05:09:37;;;;;;;17.63;10.15;;;;;;;13.05;nan;100862.09;5009483;28;20476;-71
2023/09/04 05:12:03;;;;;;;15.13;9.65;;;;;;;13.09;nan;100867.72;4990472;28;20382;-72
2023/09/04 05:14:29;;;;;;;18.58;10.38;;;;;;;13.03;nan;100858.06;5007889;28;20064;-72
2023/09/04 05:16:55;;;;;;;14.80;9.73;;;;;;;13.13;nan;100876.81;5009142;28;20029;-72
2023/09/04 05:19:21;;;;;;;13.38;10.00;;;;;;;13.09;nan;100855.28;5007670;28;20148;-70
2023/09/04 05:21:46;;;;;;;18.38;10.10;;;;;;;13.10;nan;100840.25;5007629;28;20334;-71
2023/09/04 05:24:11;;;;;;;16.77;9.00;;;;;;;13.18;nan;100856.56;5006831;28;20030;-73
2023/09/04 05:26:37;;;;;;;15.63;9.40;;;;;;;13.17;nan;100859.47;5005314;28;20030;-72
2023/09/04 05:29:05;;;;;;;14.95;9.48;;;;;;;13.32;nan;100880.97;5007152;28;20034;-70
2023/09/04 05:31:31;;;;;;;14.35;9.93;;;;;;;13.30;nan;100876.94;5006379;28;20030;-71
2023/09/04 05:33:56;;;;;;;13.05;9.40;;;;;;;13.38;nan;100898.56;5005816;28;20022;-73
2023/09/04 05:36:22;;;;;;;15.65;10.07;;;;;;;13.31;nan;100878.53;5009233;28;21413;-72
2023/09/04 05:38:47;;;;;;;14.80;9.70;;;;;;;13.28;nan;100879.00;5010232;28;20029;-73
2023/09/04 05:41:14;;;;;;;19.23;10.43;;;;;;;13.38;nan;100893.28;5008813;28;20041;-73
2023/09/04 05:43:39;;;;;;;14.00;10.10;;;;;;;13.33;nan;100879.13;5010541;28;20586;-71
2023/09/04 05:46:05;;;;;;;14.75;9.93;;;;;;;13.49;nan;100904.06;5009945;28;20048;-71
2023/09/04 05:48:31;;;;;;;13.25;9.93;;;;;;;13.47;nan;100900.84;5005981;28;20037;-73
2023/09/04 05:50:57;;;;;;;16.00;10.43;;;;;;;13.49;nan;100896.13;5006922;28;20522;-73
2023/09/04 05:53:24;;;;;;;15.65;10.38;;;;;;;13.51;nan;100892.22;5012557;28;20156;-73
2023/09/04 05:56:03;;;;;;;12.82;8.88;;;;;;;13.63;nan;100894.06;5011693;28;20033;-74
2023/09/04 05:58:29;;;;;;;11.60;8.95;;;;;;;13.62;nan;100901.16;5010891;28;20116;-74
2023/09/04 06:00:55;;;;;;;16.38;10.13;;;;;;;13.57;nan;100895.78;5011898;28;20121;-74
2023/09/04 06:03:20;;;;;;;16.48;9.40;;;;;;;13.62;nan;100901.16;5010013;28;20511;-74
2023/09/04 06:05:46;;;;;;;16.80;9.25;;;;;;;13.72;nan;100906.69;5010368;28;21079;-75
2023/09/04 06:08:11;;;;;;;12.20;8.98;;;;;;;13.66;nan;100889.09;5008484;28;20029;-74
2023/09/04 06:10:37;;;;;;;12.75;9.52;;;;;;;13.72;nan;100893.47;5006274;28;20029;-74
2023/09/04 06:13:02;;;;;;;15.27;8.82;;;;;;;13.71;nan;100885.75;5010782;28;20040;-74
2023/09/04 06:15:28;;;;;;;12.35;8.60;;;;;;;13.86;nan;100899.28;5028188;28;20108;-73
2023/09/04 06:17:53;;;;;;;15.52;9.23;;;;;;;13.88;nan;100883.16;5008321;28;20412;-74
2023/09/04 06:20:20;;;;;;;13.02;9.68;;;;;;;;;;5006229;28;20109;-72
2023/09/04 06:22:45;;;;;;;14.73;9.25;;;;;;;;;;5003297;28;20120;-72
2023/09/04 06:25:10;;;;;;;12.90;8.90;;;;;;;;;;5027259;28;20136;-69
2023/09/04 06:27:36;;;;;;;14.95;8.50;;;;;;;;;;5008475;28;20025;-72
2023/09/04 06:30:03;;;;;;;11.48;8.43;;;;;;;;;;5026509;28;20041;-69
2023/09/04 06:32:28;;;;;;;16.00;8.88;;;;;;;14.32;nan;100876.34;5009316;28;20029;-72
2023/09/04 06:34:53;;;;;;;10.50;8.35;;;;;;;14.43;nan;100883.41;5026416;28;20037;-72
2023/09/04 06:37:19;;;;;;;12.23;8.10;;;;;;;14.49;nan;100881.66;5025897;28;20621;-74
2023/09/04 06:39:44;;;;;;;10.25;7.40;;;;;;;14.58;nan;100892.69;5027892;28;20159;-74
2023/09/04 06:42:09;;;;;;;9.80;7.40;;;;;;;14.58;nan;100880.25;5002559;28;20072;-71
2023/09/04 06:44:35;;;;;;;10.27;8.10;;;;;;;14.65;nan;100885.38;5026967;28;20468;-73
2023/09/04 06:47:00;;;;;;;11.02;7.95;;;;;;;14.68;nan;100893.69;5009252;28;20075;-74
2023/09/04 06:49:26;;;;;;;15.13;7.82;;;;;;;14.67;nan;100900.00;5028667;28;20376;-73
2023/09/04 06:51:52;;;;;;;9.30;7.15;;;;;;;14.75;nan;100893.53;5027307;28;20432;-71
2023/09/04 06:54:17;;;;;;;9.38;7.15;;;;;;;14.83;nan;100893.13;5002237;28;20167;-71
2023/09/04 06:56:43;;;;;;;10.23;7.75;;;;;;;14.80;nan;100876.91;5009585;28;20903;-70
2023/09/04 06:59:08;;;;;;;10.35;7.63;;;;;;;14.90;nan;100892.97;5027231;28;20017;-73
2023/09/04 07:01:34;;;;;;;9.18;6.72;;;;;;;14.88;nan;100901.16;5010341;28;20688;-70
2023/09/04 07:03:59;;;;;;;10.57;7.00;;;;;;;14.96;nan;100918.50;5027898;28;20072;-73
2023/09/04 07:06:24;;;;;;;8.68;6.88;;;;;;;15.01;nan;100917.78;5026645;28;20091;-71
2023/09/04 07:08:50;;;;;;;9.40;7.00;;;;;;;14.99;nan;100904.78;5007294;28;20032;-73
2023/09/04 07:11:16;;;;;;;9.25;7.22;;;;;;;15.16;nan;100912.72;5027138;28;20040;-72
2023/09/04 07:13:41;;;;;;;9.32;6.57;;;;;;;15.10;nan;100887.16;4994794;28;20480;-73
2023/09/04 07:16:07;;;;;;;12.70;7.20;;;;;;;15.29;nan;100899.09;5005436;28;20575;-72
2023/09/04 07:18:32;;;;;;;8.52;6.18;;;;;;;15.41;nan;100901.66;5005330;28;20030;-72
2023/09/04 07:20:57;;;;;;;8.27;6.35;;;;;;;15.46;nan;100903.59;5006321;28;20104;-72
2023/09/04 07:23:23;;;;;;;7.57;6.30;;;;;;;15.47;nan;100898.03;5005542;28;20995;-73
2023/09/04 07:25:52;;;;;;;11.02;6.97;;;;;;;15.60;nan;100896.09;5007620;28;20104;-73
2023/09/04 07:28:18;;;;;;;;;;;;;;;15.80;nan;100922.91;5007107;28;20054;-72
2023/09/04 07:30:44;;;;;;;9.10;6.10;;;;;;;15.81;nan;100924.53;5005774;28;20409;-73
2023/09/04 07:33:09;;;;;;;7.25;5.50;;;;;;;15.82;nan;100920.81;5006047;28;20054;-72
2023/09/04 07:35:34;;;;;;;8.55;5.35;;;;;;;15.88;nan;100933.13;5007493;28;20120;-72
2023/09/04 07:38:00;;;;;;;8.23;6.07;;;;;;;15.79;nan;100921.31;5004987;28;20786;-71
2023/09/04 07:40:25;;;;;;;6.68;5.50;;;;;;;15.86;nan;100919.28;5000567;28;20113;-72
2023/09/04 07:42:51;;;;;;;7.88;5.85;;;;;;;15.91;nan;100924.66;5006368;28;20492;-72
2023/09/04 07:45:16;;;;;;;6.90;5.38;;;;;;;15.95;nan;100939.03;5005460;28;20025;-70
2023/09/04 07:47:42;;;;;;;6.40;5.40;;;;;;;15.95;nan;100941.69;5005578;28;20056;-72
2023/09/04 07:50:07;;;;;;;10.95;5.80;;;;;;;15.94;nan;100929.44;5006347;28;20030;-73
2023/09/04 07:52:33;;;;;;;9.13;5.70;;;;;;;16.06;nan;100942.59;5006049;28;20021;-75
2023/09/04 07:54:58;;;;;;;6.43;5.63;;;;;;;16.15;nan;100935.00;5006583;28;20033;-70
2023/09/04 07:57:23;;;;;;;7.35;5.60;;;;;;;;;;5004929;28;20088;-74
2023/09/04 07:59:49;;;;;;;7.83;5.27;;;;;;;16.44;nan;100927.63;5010715;28;20033;-74
2023/09/04 08:02:16;;;;;;;6.55;5.55;;;;;;;16.55;nan;100926.66;5009601;28;20038;-75
2023/09/04 08:04:41;;;;;;;6.07;5.05;;;;;;;16.70;nan;100926.00;5008901;28;20044;-71
2023/09/04 08:07:06;;;;;;;7.78;5.13;;;;;;;;;;5009788;28;20033;-72
2023/09/04 08:09:32;;;;;;;6.55;5.10;;;;;;;;;;5006482;28;20034;-72
2023/09/04 08:11:57;;;;;;;9.32;5.22;;;;;;;;;;5009915;28;20079;-72
2023/09/04 08:14:22;;;;;;;7.13;4.97;;;;;;;16.95;nan;100927.28;5008051;28;20076;-71
2023/09/04 08:16:47;;;;;;;8.23;4.93;;;;;;;;;;5004614;28;20192;-71
2023/09/04 08:19:13;;;;;;;7.13;4.87;;;;;;;;;;5005878;28;20026;-70
2023/09/04 08:21:38;;;;;;;6.50;4.80;;;;;;;17.03;nan;100918.84;5006594;28;20421;-71
2023/09/04 08:24:04;;;;;;;5.07;4.43;;;;;;;;;;5007541;28;20030;-70
2023/09/04 08:26:29;;;;;;;6.85;5.25;;;;;;;;;;5006736;28;20057;-71
2023/09/04 08:28:55;;;;;;;10.15;4.90;;;;;;;;;;5006772;28;20907;-70
2023/09/04 08:31:20;;;;;;;5.85;4.25;;;;;;;;;;5002098;28;20026;-71
2023/09/04 08:33:45;;;;;;;5.80;4.67;;;;;;;17.63;nan;100888.31;5008914;28;20037;-70
2023/09/04 08:36:10;;;;;;;6.30;4.30;;;;;;;;;;5006588;28;20026;-70
2023/09/04 08:38:36;;;;;;;7.63;4.40;;;;;;;;;;5008539;28;20080;-69
2023/09/04 08:41:04;;;;;;;7.00;4.80;;;;;;;;;;5008058;28;20080;-71
2023/09/04 08:43:30;;;;;;;7.03;4.88;;;;;;;;;;5007762;28;20064;-70
2023/09/04 08:45:57;;;;;;;7.85;4.55;;;;;;;;;;5008981;28;20034;-70
2023/09/04 08:48:23;;;;;;;6.97;4.63;;;;;;;;;;5008031;28;20129;-71
2023/09/04 08:50:48;;;;;;;6.72;4.90;;;;;;;;;;5006742;28;20041;-72
2023/09/04 08:53:14;;;;;;;7.15;4.75;;;;;;;18.25;nan;100899.22;5007669;28;20551;-71
2023/09/04 08:55:39;;;;;;;9.00;4.32;;;;;;;;;;5005400;28;20026;-70
2023/09/04 08:58:05;;;;;;;5.07;4.50;;;;;;;;;;5007021;28;20044;-71
2023/09/04 09:00:31;;;;;;;7.78;4.40;;;;;;;18.44;nan;100900.31;5003249;28;20353;-72
2023/09/04 09:02:58;;;;;;;4.90;3.63;;;;;;;18.56;nan;100932.06;5006437;28;20495;-71
2023/09/04 09:05:25;;;;;;;7.20;3.90;;;;;;;18.54;nan;100915.50;5007571;28;20038;-69
2023/09/04 09:07:51;;;;;;;5.43;3.70;;;;;;;18.61;nan;100908.06;5007599;28;20100;-71
2023/09/04 09:10:20;;;;;;;6.20;3.97;;;;;;;18.69;nan;100912.06;5001446;28;20030;-71
2023/09/04 09:12:46;;;;;;;4.18;3.50;;;;;;;18.78;nan;100921.16;5007594;28;20132;-71
2023/09/04 09:15:11;;;;;;;5.22;3.50;;;;;;;18.90;nan;100931.56;5007236;28;20116;-71
2023/09/04 09:17:53;;;;;;;4.32;3.50;;;;;;;18.91;nan;100917.97;5005796;28;20030;-71
2023/09/04 09:20:39;;;;;;;5.68;3.60;;;;;;;19.06;nan;100914.47;5007131;28;20037;-71
2023/09/04 09:23:05;;;;;;;5.43;3.90;;;;;;;19.11;nan;100919.00;5006377;28;20013;-71
2023/09/04 09:25:34;;;;;;;5.72;4.20;;;;;;;19.13;nan;100909.66;5006235;28;20065;-70
2023/09/04 09:28:02;;;;;;;6.97;3.67;;;;;;;19.22;nan;100917.91;5007122;28;20038;-70
2023/09/04 09:30:50;;;;;;;3.67;3.25;;;;;;;19.30;nan;100911.25;5005616;28;20496;-74
2023/09/04 09:33:20;;;;;;;11.27;4.32;;;;;;;19.39;nan;100914.16;5007240;28;20030;-70
2023/09/04 09:35:45;;;;;;;5.78;4.05;;;;;;;19.37;nan;100900.25;5006047;28;20033;-71
2023/09/04 09:38:11;;;;;;;8.23;4.00;;;;;;;19.41;nan;100896.78;5002900;28;20038;-70
2023/09/04 09:40:37;;;;;;;5.38;3.63;;;;;;;19.58;nan;100917.03;5002488;28;20026;-70
2023/09/04 09:43:03;;;;;;;6.78;4.05;;;;;;;19.62;nan;100902.06;5002414;28;20489;-72
2023/09/04 09:45:31;;;;;;;6.53;3.65;;;;;;;19.69;nan;100897.25;5006959;28;20076;-72
2023/09/04 09:47:57;;;;;;;5.78;3.90;;;;;;;19.73;nan;100896.44;5005006;28;20420;-73
2023/09/04 09:50:24;;;;;;;6.82;3.35;;;;;;;19.90;nan;100896.09;5005306;28;20044;-72
2023/09/04 09:53:00;;;;;;;6.68;3.50;;;;;;;20.08;nan;100917.91;5008120;28;20019;-73
2023/09/04 09:55:30;;;;;;;4.07;3.50;;;;;;;20.19;nan;100909.56;5008347;28;20116;-71
2023/09/04 09:57:57;;;;;;;6.10;3.67;;;;;;;20.25;nan;100904.97;5008977;28;20480;-71
2023/09/04 10:00:23;;;;;;;6.05;3.28;;;;;;;20.21;nan;100892.44;5006397;28;20037;-72
2023/09/04 10:02:48;;;;;;;4.22;3.22;;;;;;;20.25;nan;100891.59;5007871;28;20480;-73
2023/09/04 10:05:15;;;;;;;4.05;2.80;;;;;;;20.33;nan;100914.31;5008088;28;20088;-72
2023/09/04 10:07:42;;;;;;;4.13;2.83;;;;;;;20.43;nan;100914.22;5006992;28;20547;-73
2023/09/04 10:10:11;;;;;;;3.33;3.03;;;;;;;20.61;nan;100918.13;5004579;28;20041;-71
2023/09/04 10:13:03;;;;;;;5.47;3.08;;;;;;;20.70;nan;100896.94;5007458;28;20095;-71
2023/09/04 10:15:32;;;;;;;4.97;3.60;;;;;;;20.68;nan;100891.06;5009423;28;20038;-72
2023/09/04 10:18:14;;;;;;;6.30;3.17;;;;;;;20.70;nan;100894.25;5004304;28;20034;-71
2023/09/04 10:20:41;;;;;;;6.63;3.30;;;;;;;20.77;nan;100892.06;5007617;28;20068;-72
2023/09/04 10:23:11;;;;;;;4.05;3.50;;;;;;;20.80;nan;100897.63;5005505;28;20109;-72
2023/09/04 10:26:00;;;;;;;5.40;2.78;;;;;;;20.89;nan;100900.50;5007311;28;20384;-72
2023/09/04 10:28:36;;;;;;;4.05;3.03;;;;;;;21.00;nan;100895.88;5006375;28;20041;-71
2023/09/04 10:31:02;;;;;;;3.42;2.85;;;;;;;21.03;nan;100903.34;5007364;28;20026;-71
2023/09/04 10:33:28;;;;;;;3.72;2.60;;;;;;;21.03;nan;100892.63;5004568;28;20022;-70
2023/09/04 10:35:54;;;;;;;6.47;2.90;;;;;;;21.10;nan;100881.59;5014219;28;20034;-72
2023/09/04 10:38:21;;;;;;;5.80;3.25;;;;;;;21.21;nan;100886.56;5006814;28;20120;-72
2023/09/04 10:40:47;;;;;;;4.60;2.97;;;;;;;21.33;nan;100893.38;5006365;28;20031;-72
2023/09/04 10:43:13;;;;;;;3.80;3.40;;;;;;;21.38;nan;100894.13;5007980;28;20045;-72
2023/09/04 10:45:38;;;;;;;6.25;3.03;;;;;;;21.38;nan;100894.13;5006732;28;20324;-71
2023/09/04 10:48:04;;;;;;;7.68;5.38;;;;;;;21.55;nan;100907.09;5003567;28;20072;-74
2023/09/04 10:50:35;;;;;;;5.28;3.00;;;;;;;21.60;nan;100900.88;5006381;28;20029;-71
2023/09/04 10:53:02;;;;;;;4.32;2.80;;;;;;;21.62;nan;100894.16;4998070;28;20018;-71
2023/09/04 10:55:29;;;;;;;5.03;2.50;;;;;;;21.67;nan;100901.34;5006397;28;20040;-71
2023/09/04 10:57:58;;;;;;;4.43;3.17;;;;;;;21.54;nan;100880.59;5008547;28;20042;-70
2023/09/04 11:00:28;;;;;;;4.93;2.92;;;;;;;21.72;nan;100898.59;5005626;28;20404;-71
2023/09/04 11:02:54;;;;;;;9.95;2.75;;;;;;;21.75;nan;100899.91;5021488;28;20072;-71
2023/09/04 11:05:19;;;;;;;4.68;2.55;;;;;;;21.81;nan;100885.31;5004594;28;20160;-71
2023/09/04 11:07:45;;;;;;;3.85;2.90;;;;;;;21.84;nan;100888.25;5006443;28;20030;-72
2023/09/04 11:10:10;;;;;;;4.38;2.20;;;;;;;21.90;nan;100886.28;5007353;28;20033;-72
2023/09/04 11:12:37;;;;;;;3.10;2.30;;;;;;;21.88;nan;100877.72;5006019;28;20038;-72
2023/09/04 11:15:11;;;;;;;5.82;2.50;;;;;;;21.95;nan;100874.69;5006767;28;20642;-72
2023/09/04 11:17:39;;;;;;;4.20;2.47;;;;;;;21.96;nan;100877.09;5001298;28;20034;-72
2023/09/04 11:20:06;;;;;;;2.90;2.58;;;;;;;22.01;nan;100878.91;5005448;28;20040;-72
2023/09/04 11:22:33;;;;;;;3.25;2.03;;;;;;;22.26;nan;100897.31;5006773;28;20121;-73
2023/09/04 11:24:58;;;;;;;3.13;1.88;;;;;;;22.22;nan;100884.78;5003391;28;20108;-73
2023/09/04 11:27:25;;;;;;;3.45;1.85;;;;;;;22.29;nan;100879.84;5004787;28;20113;-72
2023/09/04 11:29:51;;;;;;;3.75;2.25;;;;;;;22.36;nan;100874.13;4998339;28;20103;-72
2023/09/04 11:32:18;;;;;;;2.97;2.30;;;;;;;22.42;nan;100871.06;5001163;28;20049;-72
2023/09/04 11:34:49;;;;;;;3.03;2.40;;;;;;;22.41;nan;100871.34;5006289;28;20026;-72
2023/09/04 11:37:14;;;;;;;6.32;2.88;;;;;;;22.37;nan;100859.63;5004253;28;20037;-72
2023/09/04 11:39:52;;;;;;;4.55;2.60;;;;;;;22.66;nan;100864.78;5004464;28;20030;-72
2023/09/04 11:42:20;;;;;;;3.63;2.50;;;;;;;22.65;nan;100872.03;5005179;28;20028;-71
2023/09/04 11:44:46;;;;;;;3.78;2.40;;;;;;;22.62;nan;100845.78;5005885;28;20500;-71
2023/09/04 11:47:12;;;;;;;4.85;2.28;;;;;;;22.71;nan;100853.94;5007201;28;20041;-71
2023/09/04 11:49:37;;;;;;;3.25;2.20;;;;;;;22.77;nan;100841.22;5005940;28;20037;-72